Time,TemperatureF,DewpointF,PressureIn,WindDirection,WindDirectionDegrees,WindSpeedMPH,WindSpeedGustMPH,Humidity,HourlyPrecipIn,Conditions,Clouds,dailyrainin,SoftwareType,DateUTC
2013-01-24 00:04:00,-6.5,-31.2,30.56,North,0,8.0,8.0,28,0.00,,,0.00,meteohub,2013-01-24 06:04:00,
2013-01-24 00:09:00,-6.7,-31.2,30.57,North,0,5.0,8.0,28,0.00,,,0.00,meteohub,2013-01-24 06:09:00,
2013-01-24 00:14:00,-6.9,-31.4,30.56,North,0,7.0,8.0,28,0.00,,,0.00,meteohub,2013-01-24 06:14:00,
2013-01-24 00:19:00,-6.9,-31.4,30.57,NNE,23,6.0,9.0,28,0.00,,,0.00,meteohub,2013-01-24 06:19:00,
2013-01-24 00:24:00,-7.1,-31.5,30.56,NW,315,5.0,9.0,28,0.00,,,0.00,meteohub,2013-01-24 06:24:00,
2013-01-24 00:29:00,-7.1,-31.5,30.57,East,90,4.0,9.0,28,0.00,,,0.00,meteohub,2013-01-24 06:29:00,
2013-01-24 00:34:00,-7.2,-31.7,30.57,North,0,8.0,8.0,28,0.00,,,0.00,meteohub,2013-01-24 06:34:00,
2013-01-24 00:39:00,-7.2,-31.7,30.57,North,0,7.0,8.0,28,0.00,,,0.00,meteohub,2013-01-24 06:39:00,
2013-01-24 00:44:00,-7.4,-31.9,30.58,NNE,23,6.0,8.0,28,0.00,,,0.00,meteohub,2013-01-24 06:44:00,
2013-01-24 00:49:00,-7.4,-31.9,30.57,NNE,23,7.0,8.0,28,0.00,,,0.00,meteohub,2013-01-24 06:49:00,
2013-01-24 00:54:00,-7.4,-31.9,30.58,North,0,4.0,8.0,28,0.00,,,0.00,meteohub,2013-01-24 06:54:00,
2013-01-24 00:59:00,-7.4,-31.9,30.57,North,0,4.0,17.0,28,0.00,,,0.00,meteohub,2013-01-24 06:59:00,
2013-01-24 01:04:00,-7.6,-32.1,30.57,North,0,3.0,17.0,28,0.00,,,0.00,meteohub,2013-01-24 07:04:00,
2013-01-24 01:09:00,-7.6,-32.1,30.57,North,0,4.0,7.0,28,0.00,,,0.00,meteohub,2013-01-24 07:09:00,
2013-01-24 01:14:00,-7.6,-32.1,30.58,NNW,338,3.0,7.0,28,0.00,,,0.00,meteohub,2013-01-24 07:14:00,
2013-01-24 01:19:00,-7.8,-35.0,30.57,NNE,23,7.0,7.0,24,0.00,,,0.00,meteohub,2013-01-24 07:19:00,
2013-01-24 01:24:00,-7.8,-35.0,30.57,NNE,23,7.0,7.0,24,0.00,,,0.00,meteohub,2013-01-24 07:24:00,
2013-01-24 01:29:00,-8.0,-35.1,30.58,NNE,23,5.0,7.0,24,0.00,,,0.00,meteohub,2013-01-24 07:29:00,
2013-01-24 01:34:00,-8.0,-35.1,30.58,North,0,3.0,7.0,24,0.00,,,0.00,meteohub,2013-01-24 07:34:00,
2013-01-24 01:39:00,-8.0,-35.1,30.58,North,0,4.0,7.0,24,0.00,,,0.00,meteohub,2013-01-24 07:39:00,
2013-01-24 01:44:00,-8.0,-35.1,30.57,North,0,6.0,7.0,24,0.00,,,0.00,meteohub,2013-01-24 07:44:00,
2013-01-24 01:49:00,-8.1,-35.3,30.57,NW,315,4.0,5.0,24,0.00,,,0.00,meteohub,2013-01-24 07:49:00,
2013-01-24 01:54:00,-8.1,-35.3,30.58,NW,315,7.0,7.0,24,0.00,,,0.00,meteohub,2013-01-24 07:54:00,
2013-01-24 01:59:00,-8.1,-35.3,30.58,NE,45,4.0,7.0,24,0.00,,,0.00,meteohub,2013-01-24 07:59:00,
2013-01-24 02:04:00,-8.1,-35.3,30.58,NE,45,4.0,7.0,24,0.00,,,0.00,meteohub,2013-01-24 08:04:00,
2013-01-24 02:09:00,-8.1,-35.3,30.58,North,0,7.0,7.0,24,0.00,,,0.00,meteohub,2013-01-24 08:09:00,
2013-01-24 02:14:00,-8.1,-35.3,30.58,North,0,5.0,6.0,24,0.00,,,0.00,meteohub,2013-01-24 08:14:00,
2013-01-24 02:19:00,-8.1,-34.6,30.58,North,0,6.0,7.0,25,0.00,,,0.00,meteohub,2013-01-24 08:19:00,
2013-01-24 02:24:00,-8.1,-34.6,30.58,North,0,4.0,7.0,25,0.00,,,0.00,meteohub,2013-01-24 08:24:00,
2013-01-24 02:29:00,-8.1,-34.6,30.58,WNW,293,4.0,7.0,25,0.00,,,0.00,meteohub,2013-01-24 08:29:00,
2013-01-24 02:34:00,-8.1,-34.6,30.59,North,0,4.0,6.0,25,0.00,,,0.00,meteohub,2013-01-24 08:34:00,
2013-01-24 02:40:00,-8.1,-34.6,30.59,North,0,4.0,6.0,25,0.00,,,0.00,meteohub,2013-01-24 08:40:00,
2013-01-24 02:45:00,-8.1,-33.9,30.59,WNW,293,4.0,4.0,26,0.00,,,0.00,meteohub,2013-01-24 08:45:00,
2013-01-24 02:50:00,-8.1,-33.9,30.60,North,0,3.0,17.0,26,0.00,,,0.00,meteohub,2013-01-24 08:50:00,
2013-01-24 02:55:00,-8.3,-34.1,30.60,WNW,293,2.0,17.0,26,0.00,,,0.00,meteohub,2013-01-24 08:55:00,
2013-01-24 03:00:00,-8.3,-34.1,30.60,NE,45,6.0,17.0,26,0.00,,,0.00,meteohub,2013-01-24 09:00:00,
2013-01-24 03:05:00,-8.3,-34.8,30.60,NE,45,2.0,5.0,25,0.00,,,0.00,meteohub,2013-01-24 09:05:00,
2013-01-24 03:10:00,-8.3,-34.1,30.60,North,0,3.0,6.0,26,0.00,,,0.00,meteohub,2013-01-24 09:10:00,
2013-01-24 03:15:00,-8.3,-34.1,30.60,NE,45,3.0,6.0,26,0.00,,,0.00,meteohub,2013-01-24 09:15:00,
2013-01-24 03:20:00,-8.3,-34.1,30.60,North,0,2.0,6.0,26,0.00,,,0.00,meteohub,2013-01-24 09:20:00,
2013-01-24 03:25:00,-8.3,-34.1,30.61,North,0,6.0,6.0,26,0.00,,,0.00,meteohub,2013-01-24 09:25:00,
2013-01-24 03:30:00,-8.3,-34.1,30.60,NNE,23,4.0,4.0,26,0.00,,,0.00,meteohub,2013-01-24 09:30:00,
2013-01-24 03:35:00,-8.3,-34.1,30.61,North,0,2.0,17.0,26,0.00,,,0.00,meteohub,2013-01-24 09:35:00,
2013-01-24 03:40:00,-8.3,-34.1,30.61,NNW,338,3.0,17.0,26,0.00,,,0.00,meteohub,2013-01-24 09:40:00,
2013-01-24 03:45:00,-8.3,-33.3,30.61,NE,45,2.0,3.0,27,0.00,,,0.00,meteohub,2013-01-24 09:45:00,
2013-01-24 03:50:00,-8.3,-33.3,30.61,NE,45,4.0,4.0,27,0.00,,,0.00,meteohub,2013-01-24 09:50:00,
2013-01-24 03:55:00,-8.3,-33.3,30.61,North,0,2.0,10.0,27,0.00,,,0.00,meteohub,2013-01-24 09:55:00,
2013-01-24 04:00:00,-8.3,-33.3,30.61,NW,315,4.0,10.0,27,0.00,,,0.00,meteohub,2013-01-24 10:00:00,
2013-01-24 04:05:00,-8.3,-33.3,30.62,NW,315,4.0,4.0,27,0.00,,,0.00,meteohub,2013-01-24 10:05:00,
2013-01-24 04:10:00,-8.3,-33.3,30.62,NE,45,3.0,4.0,27,0.00,,,0.00,meteohub,2013-01-24 10:10:00,
2013-01-24 04:15:00,-8.3,-33.3,30.62,NE,45,2.0,4.0,27,0.00,,,0.00,meteohub,2013-01-24 10:15:00,
2013-01-24 04:20:00,-8.3,-33.3,30.61,SE,135,2.0,4.0,27,0.00,,,0.00,meteohub,2013-01-24 10:20:00,
2013-01-24 04:25:00,-8.3,-32.6,30.60,North,0,3.0,4.0,28,0.00,,,0.00,meteohub,2013-01-24 10:25:00,
2013-01-24 04:30:00,-8.3,-32.6,30.60,NE,45,3.0,4.0,28,0.00,,,0.00,meteohub,2013-01-24 10:30:00,
2013-01-24 04:35:00,-8.3,-32.6,30.61,North,0,2.0,4.0,28,0.00,,,0.00,meteohub,2013-01-24 10:35:00,
2013-01-24 04:40:00,-8.3,-32.6,30.61,NE,45,2.0,4.0,28,0.00,,,0.00,meteohub,2013-01-24 10:40:00,
2013-01-24 04:45:00,-8.3,-32.6,30.60,NE,45,3.0,4.0,28,0.00,,,0.00,meteohub,2013-01-24 10:45:00,
2013-01-24 04:50:00,-8.3,-32.6,30.59,North,0,2.0,3.0,28,0.00,,,0.00,meteohub,2013-01-24 10:50:00,
2013-01-24 04:55:00,-8.3,-32.6,30.59,NE,45,3.0,3.0,28,0.00,,,0.00,meteohub,2013-01-24 10:55:00,
2013-01-24 05:00:00,-8.3,-32.6,30.59,NE,45,2.0,3.0,28,0.00,,,0.00,meteohub,2013-01-24 11:00:00,
2013-01-24 05:05:00,-8.3,-32.6,30.59,East,90,2.0,3.0,28,0.00,,,0.00,meteohub,2013-01-24 11:05:00,
2013-01-24 05:10:00,-8.1,-31.9,30.59,North,0,2.0,3.0,29,0.00,,,0.00,meteohub,2013-01-24 11:10:00,
2013-01-24 05:15:00,-8.1,-31.9,30.59,East,90,3.0,4.0,29,0.00,,,0.00,meteohub,2013-01-24 11:15:00,
2013-01-24 05:20:00,-8.0,-31.7,30.58,ESE,113,4.0,4.0,29,0.00,,,0.00,meteohub,2013-01-24 11:20:00,
2013-01-24 05:25:00,-8.0,-31.7,30.58,North,0,3.0,4.0,29,0.00,,,0.00,meteohub,2013-01-24 11:25:00,
2013-01-24 05:30:00,-8.0,-31.2,30.58,NE,45,4.0,4.0,30,0.00,,,0.00,meteohub,2013-01-24 11:30:00,
2013-01-24 05:35:00,-7.8,-31.0,30.58,East,90,2.0,4.0,30,0.00,,,0.00,meteohub,2013-01-24 11:35:00,
2013-01-24 05:40:00,-7.8,-31.0,30.59,SE,135,3.0,4.0,30,0.00,,,0.00,meteohub,2013-01-24 11:40:00,
2013-01-24 05:45:00,-7.8,-31.0,30.58,East,90,3.0,4.0,30,0.00,,,0.00,meteohub,2013-01-24 11:45:00,
2013-01-24 05:50:00,-7.6,-28.5,30.59,NE,45,2.0,14.0,34,0.00,,,0.00,meteohub,2013-01-24 11:50:00,
2013-01-24 05:56:00,-7.6,-28.5,30.58,NE,45,2.0,14.0,34,0.00,,,0.00,meteohub,2013-01-24 11:56:00,
2013-01-24 06:01:00,-7.6,-28.5,30.59,East,90,2.0,3.0,34,0.00,,,0.00,meteohub,2013-01-24 12:01:00,
2013-01-24 06:06:00,-7.6,-28.5,30.59,East,90,2.0,3.0,34,0.00,,,0.00,meteohub,2013-01-24 12:06:00,
2013-01-24 06:11:00,-7.2,-27.8,30.58,SE,135,3.0,3.0,35,0.00,,,0.00,meteohub,2013-01-24 12:11:00,
2013-01-24 06:16:00,-7.2,-27.8,30.59,SE,135,2.0,3.0,35,0.00,,,0.00,meteohub,2013-01-24 12:16:00,
2013-01-24 06:21:00,-7.1,-27.6,30.59,ESE,113,4.0,4.0,35,0.00,,,0.00,meteohub,2013-01-24 12:21:00,
2013-01-24 06:26:00,-7.1,-27.6,30.60,SE,135,2.0,4.0,35,0.00,,,0.00,meteohub,2013-01-24 12:26:00,
2013-01-24 06:31:00,-7.1,-27.6,30.60,East,90,2.0,4.0,35,0.00,,,0.00,meteohub,2013-01-24 12:31:00,
2013-01-24 06:36:00,-6.9,-27.4,30.60,NE,45,2.0,4.0,35,0.00,,,0.00,meteohub,2013-01-24 12:36:00,
2013-01-24 06:41:00,-6.7,-26.7,30.62,East,90,1.0,4.0,36,0.00,,,0.00,meteohub,2013-01-24 12:41:00,
2013-01-24 06:46:00,-6.7,-26.7,30.62,East,90,2.0,2.0,36,0.00,,,0.00,meteohub,2013-01-24 12:46:00,
2013-01-24 06:51:00,-6.7,-26.7,30.62,SE,135,2.0,2.0,36,0.00,,,0.00,meteohub,2013-01-24 12:51:00,
2013-01-24 06:56:00,-6.7,-26.7,30.63,East,90,1.0,2.0,36,0.00,,,0.00,meteohub,2013-01-24 12:56:00,
2013-01-24 07:01:00,-6.5,-26.5,30.62,NE,45,2.0,2.0,36,0.00,,,0.00,meteohub,2013-01-24 13:01:00,
2013-01-24 07:06:00,-6.5,-26.5,30.62,North,0,1.0,2.0,36,0.00,,,0.00,meteohub,2013-01-24 13:06:00,
2013-01-24 07:11:00,-6.5,-26.5,30.62,SE,135,2.0,3.0,36,0.00,,,0.00,meteohub,2013-01-24 13:11:00,
2013-01-24 07:16:00,-6.3,-26.3,30.62,ENE,68,2.0,3.0,36,0.00,,,0.00,meteohub,2013-01-24 13:16:00,
2013-01-24 07:21:00,-6.2,-26.1,30.62,East,90,2.0,3.0,36,0.00,,,0.00,meteohub,2013-01-24 13:21:00,
2013-01-24 07:26:00,-6.3,-26.9,30.62,SE,135,1.0,2.0,35,0.00,,,0.00,meteohub,2013-01-24 13:26:00,
2013-01-24 07:31:00,-6.2,-26.7,30.62,East,90,2.0,2.0,35,0.00,,,0.00,meteohub,2013-01-24 13:31:00,
2013-01-24 07:36:00,-6.2,-26.7,30.62,East,90,2.0,2.0,35,0.00,,,0.00,meteohub,2013-01-24 13:36:00,
2013-01-24 07:41:00,-6.2,-26.1,30.61,NE,45,2.0,2.0,36,0.00,,,0.00,meteohub,2013-01-24 13:41:00,
2013-01-24 07:46:00,-6.0,-26.0,30.61,East,90,2.0,2.0,36,0.00,,,0.00,meteohub,2013-01-24 13:46:00,
2013-01-24 07:51:00,-6.0,-26.0,30.61,North,0,1.0,2.0,36,0.00,,,0.00,meteohub,2013-01-24 13:51:00,
2013-01-24 07:56:00,-5.8,-26.3,30.61,East,90,2.0,3.0,35,0.00,,,0.00,meteohub,2013-01-24 13:56:00,
2013-01-24 08:01:00,-5.8,-26.3,30.61,SE,135,2.0,3.0,35,0.00,,,0.00,meteohub,2013-01-24 14:01:00,
2013-01-24 08:06:00,-5.6,-26.1,30.61,East,90,3.0,3.0,35,0.00,,,0.00,meteohub,2013-01-24 14:06:00,
2013-01-24 08:11:00,-5.6,-26.1,30.60,East,90,2.0,3.0,35,0.00,,,0.00,meteohub,2013-01-24 14:11:00,
2013-01-24 08:16:00,-5.4,-26.1,30.60,SE,135,2.0,4.0,35,0.00,,,0.00,meteohub,2013-01-24 14:16:00,
2013-01-24 08:21:00,-5.3,-25.4,30.60,East,90,4.0,4.0,36,0.00,,,0.00,meteohub,2013-01-24 14:21:00,
2013-01-24 08:26:00,-5.4,-26.1,30.59,SE,135,2.0,4.0,35,0.00,,,0.00,meteohub,2013-01-24 14:26:00,
2013-01-24 08:31:00,-5.3,-25.4,30.59,SE,135,2.0,4.0,36,0.00,,,0.00,meteohub,2013-01-24 14:31:00,
2013-01-24 08:36:00,-5.3,-25.4,30.58,NE,45,2.0,4.0,36,0.00,,,0.00,meteohub,2013-01-24 14:36:00,
2013-01-24 08:41:00,-5.1,-25.2,30.59,ESE,113,3.0,4.0,36,0.00,,,0.00,meteohub,2013-01-24 14:41:00,
2013-01-24 08:46:00,-4.9,-25.1,30.59,NE,45,4.0,8.0,36,0.00,,,0.00,meteohub,2013-01-24 14:46:00,
2013-01-24 08:51:00,-4.9,-25.1,30.58,East,90,3.0,8.0,36,0.00,,,0.00,meteohub,2013-01-24 14:51:00,
2013-01-24 08:56:00,-4.7,-24.9,30.58,SE,135,4.0,8.0,36,0.00,,,0.00,meteohub,2013-01-24 14:56:00,
2013-01-24 09:01:00,-4.4,-24.5,30.58,SE,135,4.0,4.0,36,0.00,,,0.00,meteohub,2013-01-24 15:01:00,
2013-01-24 09:06:00,-4.2,-24.3,30.58,East,90,3.0,6.0,36,0.00,,,0.00,meteohub,2013-01-24 15:06:00,
2013-01-24 09:11:00,-4.0,-24.7,30.57,SE,135,5.0,11.0,35,0.00,,,0.00,meteohub,2013-01-24 15:11:00,
2013-01-24 09:16:00,-4.2,-24.3,30.57,East,90,6.0,11.0,36,0.00,,,0.00,meteohub,2013-01-24 15:16:00,
2013-01-24 09:21:00,-4.4,-24.5,30.56,East,90,4.0,6.0,36,0.00,,,0.00,meteohub,2013-01-24 15:21:00,
2013-01-24 09:26:00,-4.0,-24.7,30.56,East,90,4.0,6.0,35,0.00,,,0.00,meteohub,2013-01-24 15:26:00,
2013-01-24 09:31:00,-3.8,-24.5,30.57,NE,45,5.0,11.0,35,0.00,,,0.00,meteohub,2013-01-24 15:31:00,
2013-01-24 09:36:00,-3.8,-24.5,30.56,East,90,6.0,11.0,35,0.00,,,0.00,meteohub,2013-01-24 15:36:00,
2013-01-24 09:41:00,-3.8,-24.5,30.56,SE,135,5.0,11.0,35,0.00,,,0.00,meteohub,2013-01-24 15:41:00,
2013-01-24 09:46:00,-3.6,-24.5,30.56,East,90,2.0,6.0,35,0.00,,,0.00,meteohub,2013-01-24 15:46:00,
2013-01-24 09:51:00,-3.3,-24.2,30.56,East,90,4.0,6.0,35,0.00,,,0.00,meteohub,2013-01-24 15:51:00,
2013-01-24 09:56:00,-3.1,-24.0,30.57,East,90,4.0,5.0,35,0.00,,,0.00,meteohub,2013-01-24 15:56:00,
2013-01-24 10:02:00,-2.7,-23.6,30.58,East,90,4.0,6.0,35,0.00,,,0.00,meteohub,2013-01-24 16:02:00,
2013-01-24 10:07:00,-2.4,-23.3,30.58,East,90,3.0,6.0,35,0.00,,,0.00,meteohub,2013-01-24 16:07:00,
2013-01-24 10:12:00,-2.0,-23.4,30.58,East,90,5.0,6.0,34,0.00,,,0.00,meteohub,2013-01-24 16:12:00,
2013-01-24 10:17:00,-2.2,-23.6,30.57,SE,135,3.0,5.0,34,0.00,,,0.00,meteohub,2013-01-24 16:17:00,
2013-01-24 10:22:00,-2.2,-23.6,30.58,SE,135,3.0,6.0,34,0.00,,,0.00,meteohub,2013-01-24 16:22:00,
2013-01-24 10:27:00,-2.0,-24.2,30.57,SE,135,2.0,6.0,33,0.00,,,0.00,meteohub,2013-01-24 16:27:00,
2013-01-24 10:32:00,-6.0,-30.6,30.23,NW,315,11.0,11.0,28,0.00,,,0.00,meteohub,2013-01-24 16:32:00,
2013-01-24 10:37:00,-1.7,-23.8,30.56,SE,135,4.0,11.0,33,0.00,,,0.00,meteohub,2013-01-24 16:37:00,
2013-01-24 10:42:00,-1.7,-23.8,30.57,NW,315,3.0,11.0,33,0.00,,,0.00,meteohub,2013-01-24 16:42:00,
2013-01-24 10:47:00,-1.3,-23.4,30.57,SE,135,4.0,11.0,33,0.00,,,0.00,meteohub,2013-01-24 16:47:00,
2013-01-24 10:52:00,-1.3,-24.0,30.57,SE,135,3.0,5.0,32,0.00,,,0.00,meteohub,2013-01-24 16:52:00,
2013-01-24 10:57:00,-1.3,-24.0,30.57,South,180,1.0,6.0,32,0.00,,,0.00,meteohub,2013-01-24 16:57:00,
2013-01-24 11:02:00,-0.8,-23.6,30.56,East,90,4.0,6.0,32,0.00,,,0.00,meteohub,2013-01-24 17:02:00,
2013-01-24 11:07:00,-0.8,-23.6,30.56,East,90,5.0,7.0,32,0.00,,,0.00,meteohub,2013-01-24 17:07:00,
2013-01-24 11:12:00,-0.6,-23.4,30.56,West,270,2.0,7.0,32,0.00,,,0.00,meteohub,2013-01-24 17:12:00,
2013-01-24 11:17:00,0.3,-22.5,30.55,NE,45,4.0,6.0,32,0.00,,,0.00,meteohub,2013-01-24 17:17:00,
2013-01-24 11:22:00,0.5,-22.4,30.56,SE,135,5.0,6.0,32,0.00,,,0.00,meteohub,2013-01-24 17:22:00,
2013-01-24 11:27:00,0.1,-23.3,30.55,South,180,5.0,6.0,31,0.00,,,0.00,meteohub,2013-01-24 17:27:00,
2013-01-24 11:32:00,0.5,-22.4,30.55,NE,45,4.0,8.0,32,0.00,,,0.00,meteohub,2013-01-24 17:32:00,
2013-01-24 11:37:00,1.0,-22.0,30.55,South,180,4.0,8.0,32,0.00,,,0.00,meteohub,2013-01-24 17:37:00,
2013-01-24 11:42:00,1.0,-22.0,30.54,SW,225,5.0,7.0,32,0.00,,,0.00,meteohub,2013-01-24 17:42:00,
2013-01-24 11:47:00,0.9,-22.2,30.54,North,0,4.0,7.0,32,0.00,,,0.00,meteohub,2013-01-24 17:47:00,
2013-01-24 11:52:00,1.0,-22.0,30.53,East,90,4.0,5.0,32,0.00,,,0.00,meteohub,2013-01-24 17:52:00,
2013-01-24 11:57:00,1.4,-19.3,30.53,NE,45,4.0,5.0,36,0.00,,,0.00,meteohub,2013-01-24 17:57:00,
2013-01-24 12:02:00,1.8,-18.6,30.52,ESE,113,4.0,5.0,37,0.00,,,0.00,meteohub,2013-01-24 18:02:00,
2013-01-24 12:07:00,1.8,-18.6,30.52,ESE,113,4.0,5.0,37,0.00,,,0.00,meteohub,2013-01-24 18:07:00,
2013-01-24 12:12:00,1.8,-19.1,30.52,East,90,4.0,5.0,36,0.00,,,0.00,meteohub,2013-01-24 18:12:00,
2013-01-24 12:17:00,2.3,-18.0,30.52,SSW,203,5.0,5.0,37,0.00,,,0.00,meteohub,2013-01-24 18:17:00,
2013-01-24 12:22:00,2.3,-18.6,30.52,East,90,4.0,5.0,36,0.00,,,0.00,meteohub,2013-01-24 18:22:00,
2013-01-24 12:27:00,2.5,-18.4,30.52,SE,135,4.0,7.0,36,0.00,,,0.00,meteohub,2013-01-24 18:27:00,
2013-01-24 12:32:00,2.7,-18.2,30.51,SE,135,6.0,11.0,36,0.00,,,0.00,meteohub,2013-01-24 18:32:00,
2013-01-24 12:37:00,2.7,-18.2,30.51,SE,135,3.0,11.0,36,0.00,,,0.00,meteohub,2013-01-24 18:37:00,
2013-01-24 12:42:00,3.2,-17.7,30.50,East,90,5.0,11.0,36,0.00,,,0.00,meteohub,2013-01-24 18:42:00,
2013-01-24 12:47:00,3.2,-18.2,30.50,North,0,5.0,7.0,35,0.00,,,0.00,meteohub,2013-01-24 18:47:00,
2013-01-24 12:53:00,3.2,-18.2,30.49,NE,45,4.0,6.0,35,0.00,,,0.00,meteohub,2013-01-24 18:53:00,
2013-01-24 12:58:00,3.2,-18.2,30.49,East,90,8.0,8.0,35,0.00,,,0.00,meteohub,2013-01-24 18:58:00,
2013-01-24 13:03:00,3.4,-17.5,30.48,South,180,4.0,8.0,36,0.00,,,0.00,meteohub,2013-01-24 19:03:00,
2013-01-24 13:08:00,3.9,-17.1,30.47,East,90,6.0,8.0,36,0.00,,,0.00,meteohub,2013-01-24 19:08:00,
2013-01-24 13:13:00,3.7,-17.3,30.47,East,90,4.0,8.0,36,0.00,,,0.00,meteohub,2013-01-24 19:13:00,
2013-01-24 13:18:00,3.9,-17.1,30.47,NW,315,2.0,7.0,36,0.00,,,0.00,meteohub,2013-01-24 19:18:00,
2013-01-24 13:23:00,4.5,-16.1,30.47,SE,135,4.0,8.0,37,0.00,,,0.00,meteohub,2013-01-24 19:23:00,
2013-01-24 13:28:00,4.5,-16.6,30.47,East,90,4.0,8.0,36,0.00,,,0.00,meteohub,2013-01-24 19:28:00,
2013-01-24 13:33:00,4.1,-17.0,30.47,SW,225,4.0,7.0,36,0.00,,,0.00,meteohub,2013-01-24 19:33:00,
2013-01-24 13:38:00,4.1,-17.0,30.47,East,90,4.0,7.0,36,0.00,,,0.00,meteohub,2013-01-24 19:38:00,
2013-01-24 13:43:00,4.1,-17.0,30.46,East,90,4.0,7.0,36,0.00,,,0.00,meteohub,2013-01-24 19:43:00,
2013-01-24 13:48:00,4.5,-16.1,30.46,East,90,6.0,7.0,37,0.00,,,0.00,meteohub,2013-01-24 19:48:00,
2013-01-24 13:53:00,4.5,-16.1,30.47,SE,135,4.0,6.0,37,0.00,,,0.00,meteohub,2013-01-24 19:53:00,
2013-01-24 13:58:00,4.6,-15.9,30.46,East,90,6.0,6.0,37,0.00,,,0.00,meteohub,2013-01-24 19:58:00,
2013-01-24 14:03:00,4.6,-15.9,30.45,SE,135,2.0,6.0,37,0.00,,,0.00,meteohub,2013-01-24 20:03:00,
2013-01-24 14:08:00,4.8,-15.2,30.46,NE,45,3.0,6.0,38,0.00,,,0.00,meteohub,2013-01-24 20:08:00,
2013-01-24 14:13:00,5.0,-15.5,30.46,East,90,4.0,6.0,37,0.00,,,0.00,meteohub,2013-01-24 20:13:00,
2013-01-24 14:18:00,5.2,-15.3,30.45,East,90,3.0,6.0,37,0.00,,,0.00,meteohub,2013-01-24 20:18:00,
2013-01-24 14:24:00,5.4,-15.3,30.45,SW,225,3.0,6.0,37,0.00,,,0.00,meteohub,2013-01-24 20:24:00,
2013-01-24 14:29:00,5.5,-15.2,30.45,East,90,6.0,6.0,37,0.00,,,0.00,meteohub,2013-01-24 20:29:00,
2013-01-24 14:34:00,5.5,-15.2,30.43,East,90,6.0,6.0,37,0.00,,,0.00,meteohub,2013-01-24 20:34:00,
2013-01-24 14:39:00,5.5,-15.7,30.42,East,90,8.0,8.0,36,0.00,,,0.00,meteohub,2013-01-24 20:39:00,
2013-01-24 14:44:00,5.5,-15.7,30.42,East,90,7.0,7.0,36,0.00,,,0.00,meteohub,2013-01-24 20:44:00,
2013-01-24 14:49:00,5.7,-15.5,30.41,East,90,5.0,8.0,36,0.00,,,0.00,meteohub,2013-01-24 20:49:00,
2013-01-24 14:54:00,5.7,-15.5,30.40,East,90,4.0,8.0,36,0.00,,,0.00,meteohub,2013-01-24 20:54:00,
2013-01-24 14:59:00,5.9,-15.3,30.40,SE,135,7.0,8.0,36,0.00,,,0.00,meteohub,2013-01-24 20:59:00,
2013-01-24 15:04:00,6.1,-15.2,30.39,East,90,6.0,8.0,36,0.00,,,0.00,meteohub,2013-01-24 21:04:00,
2013-01-24 15:09:00,6.1,-15.2,30.39,ESE,113,5.0,8.0,36,0.00,,,0.00,meteohub,2013-01-24 21:09:00,
2013-01-24 15:14:00,6.1,-15.2,30.39,South,180,5.0,9.0,36,0.00,,,0.00,meteohub,2013-01-24 21:14:00,
2013-01-24 15:19:00,6.3,-15.0,30.39,SW,225,4.0,9.0,36,0.00,,,0.00,meteohub,2013-01-24 21:19:00,
2013-01-24 15:24:00,6.4,-14.3,30.39,East,90,3.0,7.0,37,0.00,,,0.00,meteohub,2013-01-24 21:24:00,
2013-01-24 15:29:00,6.6,-14.1,30.39,SE,135,5.0,7.0,37,0.00,,,0.00,meteohub,2013-01-24 21:29:00,
2013-01-24 15:34:00,6.8,-14.4,30.38,SW,225,12.0,12.0,36,0.00,,,0.00,meteohub,2013-01-24 21:34:00,
2013-01-24 15:39:00,6.8,-15.0,30.38,SE,135,6.0,7.0,35,0.00,,,0.00,meteohub,2013-01-24 21:39:00,
2013-01-24 15:44:00,6.8,-15.7,30.37,NW,315,4.0,12.0,34,0.00,,,0.00,meteohub,2013-01-24 21:44:00,
2013-01-24 15:49:00,7.0,-15.5,30.37,East,90,6.0,12.0,34,0.00,,,0.00,meteohub,2013-01-24 21:49:00,
2013-01-24 15:54:00,7.0,-16.1,30.37,East,90,11.0,11.0,33,0.00,,,0.00,meteohub,2013-01-24 21:54:00,
2013-01-24 15:59:00,7.0,-16.1,30.36,SE,135,5.0,11.0,33,0.00,,,0.00,meteohub,2013-01-24 21:59:00,
2013-01-24 16:04:00,7.2,-15.9,30.36,East,90,7.0,11.0,33,0.00,,,0.00,meteohub,2013-01-24 22:04:00,
2013-01-24 16:09:00,7.2,-15.9,30.35,SSE,158,8.0,11.0,33,0.00,,,0.00,meteohub,2013-01-24 22:09:00,
2013-01-24 16:14:00,7.2,-16.4,30.35,East,90,8.0,10.0,32,0.00,,,0.00,meteohub,2013-01-24 22:14:00,
2013-01-24 16:19:00,7.0,-16.6,30.34,East,90,4.0,10.0,32,0.00,,,0.00,meteohub,2013-01-24 22:19:00,
2013-01-24 16:24:00,7.2,-15.3,30.35,East,90,9.0,10.0,34,0.00,,,0.00,meteohub,2013-01-24 22:24:00,
2013-01-24 16:29:00,7.0,-15.5,30.35,East,90,4.0,10.0,34,0.00,,,0.00,meteohub,2013-01-24 22:29:00,
2013-01-24 16:34:00,7.0,-15.0,30.35,South,180,4.0,9.0,35,0.00,,,0.00,meteohub,2013-01-24 22:34:00,
2013-01-24 16:39:00,7.0,-15.0,30.35,ESE,113,6.0,9.0,35,0.00,,,0.00,meteohub,2013-01-24 22:39:00,
2013-01-24 16:44:00,6.8,-14.4,30.34,East,90,5.0,11.0,36,0.00,,,0.00,meteohub,2013-01-24 22:44:00,
2013-01-24 16:49:00,6.8,-14.4,30.34,East,90,5.0,11.0,36,0.00,,,0.00,meteohub,2013-01-24 22:49:00,
2013-01-24 16:54:00,6.8,-14.4,30.33,East,90,6.0,11.0,36,0.00,,,0.00,meteohub,2013-01-24 22:54:00,
2013-01-24 16:59:00,6.6,-14.1,30.33,NE,45,6.0,7.0,37,0.00,,,0.00,meteohub,2013-01-24 22:59:00,
2013-01-24 17:04:00,6.8,-13.9,30.32,East,90,4.0,7.0,37,0.00,,,0.00,meteohub,2013-01-24 23:04:00,
2013-01-24 17:09:00,6.8,-13.9,30.32,East,90,7.0,8.0,37,0.00,,,0.00,meteohub,2013-01-24 23:09:00,
2013-01-24 17:14:00,6.8,-13.9,30.32,South,180,6.0,8.0,37,0.00,,,0.00,meteohub,2013-01-24 23:14:00,
2013-01-24 17:19:00,6.8,-13.9,30.33,SE,135,6.0,8.0,37,0.00,,,0.00,meteohub,2013-01-24 23:19:00,
2013-01-24 17:24:00,7.0,-13.7,30.32,West,270,6.0,10.0,37,0.00,,,0.00,meteohub,2013-01-24 23:24:00,
2013-01-24 17:29:00,7.0,-13.4,30.32,East,90,6.0,10.0,38,0.00,,,0.00,meteohub,2013-01-24 23:29:00,
2013-01-24 17:34:00,7.0,-12.8,30.32,SE,135,4.0,10.0,39,0.00,,,0.00,meteohub,2013-01-24 23:34:00,
2013-01-24 17:39:00,7.2,-12.6,30.32,North,0,8.0,9.0,39,0.00,,,0.00,meteohub,2013-01-24 23:39:00,
2013-01-24 17:44:00,7.0,-12.8,30.31,ESE,113,8.0,8.0,39,0.00,,,0.00,meteohub,2013-01-24 23:44:00,
2013-01-24 17:49:00,7.0,-12.8,30.30,NE,45,8.0,8.0,39,0.00,,,0.00,meteohub,2013-01-24 23:49:00,
2013-01-24 17:54:00,7.0,-12.8,30.31,East,90,4.0,14.0,39,0.00,,,0.00,meteohub,2013-01-24 23:54:00,
2013-01-24 17:59:00,7.0,-12.8,30.30,SE,135,8.0,14.0,39,0.00,,,0.00,meteohub,2013-01-24 23:59:00,
2013-01-24 18:04:00,7.0,-12.8,30.30,SE,135,8.0,14.0,39,0.00,,,0.00,meteohub,2013-01-25 00:04:00,
2013-01-24 18:10:00,7.0,-12.8,30.30,East,90,3.0,8.0,39,0.00,,,0.00,meteohub,2013-01-25 00:10:00,
2013-01-24 18:15:00,7.0,-12.8,30.30,NE,45,9.0,9.0,39,0.00,,,0.00,meteohub,2013-01-25 00:15:00,
2013-01-24 18:20:00,7.0,-12.8,30.28,South,180,10.0,11.0,39,0.00,,,0.00,meteohub,2013-01-25 00:20:00,
2013-01-24 18:25:00,7.0,-12.8,30.28,East,90,6.0,11.0,39,0.00,,,0.00,meteohub,2013-01-25 00:25:00,
2013-01-24 18:30:00,7.0,-12.8,30.27,East,90,9.0,11.0,39,0.00,,,0.00,meteohub,2013-01-25 00:30:00,
2013-01-24 18:35:00,6.8,-13.0,30.27,East,90,8.0,11.0,39,0.00,,,0.00,meteohub,2013-01-25 00:35:00,
2013-01-24 18:40:00,6.8,-13.0,30.27,ESE,113,8.0,11.0,39,0.00,,,0.00,meteohub,2013-01-25 00:40:00,
2013-01-24 18:45:00,6.8,-13.0,30.27,East,90,7.0,11.0,39,0.00,,,0.00,meteohub,2013-01-25 00:45:00,
2013-01-24 18:50:00,6.8,-13.0,30.27,NE,45,5.0,9.0,39,0.00,,,0.00,meteohub,2013-01-25 00:50:00,
2013-01-24 18:55:00,6.8,-13.0,30.29,East,90,8.0,8.0,39,0.00,,,0.00,meteohub,2013-01-25 00:55:00,
2013-01-24 19:00:00,6.8,-13.0,30.27,East,90,8.0,8.0,39,0.00,,,0.00,meteohub,2013-01-25 01:00:00,
2013-01-24 19:05:00,6.8,-13.0,30.27,SE,135,4.0,10.0,39,0.00,,,0.00,meteohub,2013-01-25 01:05:00,
2013-01-24 19:10:00,6.8,-13.0,30.27,SE,135,4.0,10.0,39,0.00,,,0.00,meteohub,2013-01-25 01:10:00,
2013-01-24 19:15:00,7.0,-12.8,30.25,NW,315,4.0,10.0,39,0.00,,,0.00,meteohub,2013-01-25 01:15:00,
2013-01-24 19:20:00,7.0,-12.3,30.25,East,90,2.0,11.0,40,0.00,,,0.00,meteohub,2013-01-25 01:20:00,
2013-01-24 19:25:00,7.0,-12.3,30.24,SE,135,7.0,11.0,40,0.00,,,0.00,meteohub,2013-01-25 01:25:00,
2013-01-24 19:30:00,7.0,-12.3,30.24,South,180,13.0,13.0,40,0.00,,,0.00,meteohub,2013-01-25 01:30:00,
2013-01-24 19:35:00,7.0,-12.3,30.24,SW,225,6.0,13.0,40,0.00,,,0.00,meteohub,2013-01-25 01:35:00,
2013-01-24 19:40:00,7.2,-12.1,30.23,SW,225,4.0,13.0,40,0.00,,,0.00,meteohub,2013-01-25 01:40:00,
2013-01-24 19:45:00,7.0,-12.3,30.23,NW,315,3.0,13.0,40,0.00,,,0.00,meteohub,2013-01-25 01:45:00,
2013-01-24 19:50:00,7.2,-12.1,30.22,East,90,10.0,10.0,40,0.00,,,0.00,meteohub,2013-01-25 01:50:00,
2013-01-24 19:55:00,7.2,-12.1,30.22,SE,135,6.0,10.0,40,0.00,,,0.00,meteohub,2013-01-25 01:55:00,
2013-01-24 20:00:00,7.2,-12.1,30.21,East,90,6.0,10.0,40,0.00,,,0.00,meteohub,2013-01-25 02:00:00,
2013-01-24 20:05:00,7.2,-12.1,30.21,East,90,6.0,10.0,40,0.00,,,0.00,meteohub,2013-01-25 02:05:00,
2013-01-24 20:10:00,7.3,-11.4,30.21,SE,135,8.0,10.0,41,0.00,,,0.00,meteohub,2013-01-25 02:10:00,
2013-01-24 20:15:00,7.3,-11.4,30.20,East,90,8.0,9.0,41,0.00,,,0.00,meteohub,2013-01-25 02:15:00,
2013-01-24 20:20:00,7.3,-11.4,30.20,SE,135,7.0,9.0,41,0.00,,,0.00,meteohub,2013-01-25 02:20:00,
2013-01-24 20:25:00,7.5,-11.2,30.20,SW,225,7.0,9.0,41,0.00,,,0.00,meteohub,2013-01-25 02:25:00,
2013-01-24 20:30:00,7.7,-11.0,30.19,East,90,6.0,8.0,41,0.00,,,0.00,meteohub,2013-01-25 02:30:00,
2013-01-24 20:35:00,7.7,-11.0,30.20,South,180,7.0,11.0,41,0.00,,,0.00,meteohub,2013-01-25 02:35:00,
2013-01-24 20:40:00,7.7,-11.0,30.20,SE,135,4.0,11.0,41,0.00,,,0.00,meteohub,2013-01-25 02:40:00,
2013-01-24 20:45:00,7.7,-11.0,30.21,South,180,5.0,10.0,41,0.00,,,0.00,meteohub,2013-01-25 02:45:00,
2013-01-24 20:50:00,7.9,-11.0,30.20,SE,135,9.0,10.0,41,0.00,,,0.00,meteohub,2013-01-25 02:50:00,
2013-01-24 20:55:00,7.9,-11.0,30.20,SE,135,8.0,10.0,41,0.00,,,0.00,meteohub,2013-01-25 02:55:00,
2013-01-24 21:00:00,7.9,-11.0,30.19,NW,315,3.0,9.0,41,0.00,,,0.00,meteohub,2013-01-25 03:00:00,
2013-01-24 21:05:00,8.1,-10.8,30.19,South,180,8.0,9.0,41,0.00,,,0.00,meteohub,2013-01-25 03:05:00,
2013-01-24 21:10:00,8.1,-10.8,30.19,North,0,5.0,13.0,41,0.00,,,0.00,meteohub,2013-01-25 03:10:00,
2013-01-24 21:15:00,8.1,-10.8,30.18,East,90,6.0,13.0,41,0.00,,,0.00,meteohub,2013-01-25 03:15:00,
2013-01-24 21:20:00,8.2,-10.7,30.18,SE,135,9.0,13.0,41,0.00,,,0.00,meteohub,2013-01-25 03:20:00,
2013-01-24 21:25:00,8.2,-10.7,30.19,South,180,4.0,10.0,41,0.00,,,0.00,meteohub,2013-01-25 03:25:00,
2013-01-24 21:30:00,8.2,-10.7,30.18,SW,225,2.0,9.0,41,0.00,,,0.00,meteohub,2013-01-25 03:30:00,
2013-01-24 21:35:00,8.4,-10.5,30.18,ENE,68,8.0,13.0,41,0.00,,,0.00,meteohub,2013-01-25 03:35:00,
2013-01-24 21:40:00,8.4,-10.5,30.17,East,90,7.0,13.0,41,0.00,,,0.00,meteohub,2013-01-25 03:40:00,
2013-01-24 21:46:00,8.6,-10.8,30.17,NNW,338,5.0,13.0,40,0.00,,,0.00,meteohub,2013-01-25 03:46:00,
2013-01-24 21:51:00,8.6,-10.8,30.18,East,90,4.0,11.0,40,0.00,,,0.00,meteohub,2013-01-25 03:51:00,
2013-01-24 21:56:00,8.8,-10.1,30.18,NE,45,4.0,11.0,41,0.00,,,0.00,meteohub,2013-01-25 03:56:00,
2013-01-24 22:01:00,8.8,-10.1,30.19,South,180,8.0,10.0,41,0.00,,,0.00,meteohub,2013-01-25 04:01:00,
2013-01-24 22:06:00,8.8,-10.1,30.19,South,180,8.0,10.0,41,0.00,,,0.00,meteohub,2013-01-25 04:06:00,
2013-01-24 22:11:00,9.0,-9.9,30.20,NE,45,1.0,8.0,41,0.00,,,0.00,meteohub,2013-01-25 04:11:00,
2013-01-24 22:16:00,9.1,-9.8,30.19,SE,135,4.0,8.0,41,0.00,,,0.00,meteohub,2013-01-25 04:16:00,
2013-01-24 22:21:00,9.1,-9.8,30.20,South,180,4.0,8.0,41,0.00,,,0.00,meteohub,2013-01-25 04:21:00,
2013-01-24 22:26:00,9.3,-9.6,30.19,SE,135,4.0,5.0,41,0.00,,,0.00,meteohub,2013-01-25 04:26:00,
2013-01-24 22:31:00,9.3,-10.1,30.20,East,90,3.0,5.0,40,0.00,,,0.00,meteohub,2013-01-25 04:31:00,
2013-01-24 22:36:00,9.5,-9.4,30.19,ESE,113,3.0,5.0,41,0.00,,,0.00,meteohub,2013-01-25 04:36:00,
2013-01-24 22:41:00,9.5,-9.4,30.18,NW,315,2.0,4.0,41,0.00,,,0.00,meteohub,2013-01-25 04:41:00,
2013-01-24 22:46:00,9.7,-9.2,30.18,SE,135,2.0,4.0,41,0.00,,,0.00,meteohub,2013-01-25 04:46:00,
2013-01-24 22:51:00,9.7,-9.2,30.18,NE,45,1.0,4.0,41,0.00,,,0.00,meteohub,2013-01-25 04:51:00,
2013-01-24 22:56:00,9.9,-9.2,30.17,South,180,3.0,4.0,41,0.00,,,0.00,meteohub,2013-01-25 04:56:00,
2013-01-24 23:00:00,10.0,-9.0,30.17,NE,45,3.0,4.0,41,0.00,,,0.00,meteohub,2013-01-25 05:00:00,
2013-01-24 23:01:00,10.0,-9.0,30.17,NW,315,3.0,4.0,41,0.00,,,0.00,meteohub,2013-01-25 05:01:00,
2013-01-24 23:02:00,10.2,-8.9,30.17,North,0,2.0,4.0,41,0.00,,,0.00,meteohub,2013-01-25 05:02:00,
2013-01-24 23:07:00,10.6,-7.1,30.17,North,0,2.0,4.0,44,0.00,,,0.00,meteohub,2013-01-25 05:07:00,
2013-01-24 23:12:00,10.8,-6.9,30.17,North,0,3.0,4.0,44,0.00,,,0.00,meteohub,2013-01-25 05:12:00,
2013-01-24 23:17:00,11.1,-6.5,30.17,SE,135,2.0,4.0,44,0.00,,,0.00,meteohub,2013-01-25 05:17:00,
2013-01-24 23:23:00,11.3,-6.3,30.17,North,0,2.0,4.0,44,0.00,,,0.00,meteohub,2013-01-25 05:23:00,
2013-01-24 23:28:00,11.3,-6.3,30.15,North,0,2.0,5.0,44,0.00,,,0.00,meteohub,2013-01-25 05:28:00,
2013-01-24 23:33:00,11.5,-6.2,30.15,NE,45,2.0,5.0,44,0.00,,,0.00,meteohub,2013-01-25 05:33:00,
2013-01-24 23:38:00,11.5,-6.2,30.15,SW,225,2.0,6.0,44,0.00,,,0.00,meteohub,2013-01-25 05:38:00,
2013-01-24 23:43:00,11.7,-6.0,30.15,SSE,158,4.0,7.0,44,0.00,,,0.00,meteohub,2013-01-25 05:43:00,
2013-01-24 23:48:00,11.5,-6.2,30.15,North,0,2.0,7.0,44,0.00,,,0.00,meteohub,2013-01-25 05:48:00,
2013-01-24 23:53:00,11.7,-6.0,30.15,SW,225,2.0,7.0,44,0.00,,,0.00,meteohub,2013-01-25 05:53:00,
2013-01-24 23:58:00,11.5,-6.2,30.14,NE,45,2.0,4.0,44,0.00,,,0.00,meteohub,2013-01-25 05:58:00,